KMQJ

Indianapolis Regional Airport

Indianapolis, Indiana, USA
METAR KMQJ 100657Z AUTO 35004KT 7SM CLR M08/M08 A3024 RMK AO1
Observed Flight Rules
Dec-10 @ 06:57 UTC (8 minutes ago) Visual Flight Rules
Wind Visibility Clouds
350° at 4 knots 7 miles
  • Clear skies
Temperatures Readings
Current -8°C / 18°F
Dewpoint -8°C / 18°F
Humidity 100%
Altimeter 30.24" Hg
Pressure 1024 hPa
Elevation 263
METAR KMQJ 100657Z AUTO 35004KT 7SM CLR M08/M08 A3024 RMK AO1
Observed Flight Rules
Dec-10 @ 06:57 UTC
(8 minutes ago)
VFR
Wind Visibility
350° at 4 knots 7 miles
Clouds
  • Clear skies
Temperature Dewpoint
-8°C / 18°F -8°C / 18°F
Humidity Altimeter Pressure
100% 30.24" Hg 1024 hPa